createdAt,value
2018-07-25T00:02:05.547Z,21.40
2018-07-25T00:04:33.636Z,21.41
2018-07-25T00:07:01.711Z,21.38
2018-07-25T00:09:29.785Z,21.34
2018-07-25T00:11:57.976Z,21.35
2018-07-25T00:14:26.051Z,21.42
2018-07-25T00:16:54.125Z,21.42
2018-07-25T00:19:22.200Z,21.42
2018-07-25T00:21:50.332Z,21.45
2018-07-25T00:24:18.547Z,21.52
2018-07-25T00:26:46.653Z,21.45
2018-07-25T00:29:14.730Z,21.38
2018-07-25T00:31:42.808Z,21.39
2018-07-25T00:34:10.877Z,21.39
2018-07-25T00:36:39.110Z,21.28
2018-07-25T00:39:07.886Z,21.33
2018-07-25T00:41:35.997Z,21.31
2018-07-25T00:44:04.143Z,21.35
2018-07-25T00:46:32.215Z,21.41
2018-07-25T00:49:00.291Z,21.34
2018-07-25T00:51:28.366Z,21.31
2018-07-25T00:53:56.440Z,21.32
2018-07-25T00:56:24.531Z,21.28
2018-07-25T00:58:52.592Z,21.33
2018-07-25T01:01:20.687Z,21.32
2018-07-25T01:03:48.748Z,21.25
2018-07-25T01:06:16.856Z,21.26
2018-07-25T01:08:44.915Z,21.31
2018-07-25T01:11:13.005Z,21.34
2018-07-25T01:13:41.066Z,21.31
2018-07-25T01:16:09.141Z,21.24
2018-07-25T01:18:37.235Z,21.05
2018-07-25T01:21:05.317Z,21.08
2018-07-25T01:23:33.375Z,21.02
2018-07-25T01:26:01.478Z,20.86
2018-07-25T01:28:29.562Z,20.85
2018-07-25T01:30:57.645Z,20.92
2018-07-25T01:33:25.738Z,20.90
2018-07-25T01:35:53.830Z,20.89
2018-07-25T01:38:21.903Z,20.88
2018-07-25T01:40:50.004Z,20.75
2018-07-25T01:43:18.075Z,20.74
2018-07-25T01:45:46.173Z,20.73
2018-07-25T01:48:14.262Z,20.73
2018-07-25T01:50:42.337Z,20.69
2018-07-25T01:53:10.400Z,20.76
2018-07-25T01:55:38.566Z,20.65
2018-07-25T01:58:06.707Z,20.48
2018-07-25T02:00:34.775Z,20.39
2018-07-25T02:03:02.836Z,20.44
2018-07-25T02:05:30.920Z,20.52
2018-07-25T02:07:58.992Z,20.50
2018-07-25T02:10:27.059Z,20.33
2018-07-25T02:12:55.268Z,20.35
2018-07-25T02:15:23.572Z,20.31
2018-07-25T02:17:51.718Z,20.33
2018-07-25T02:20:19.830Z,20.29
2018-07-25T02:22:47.904Z,20.24
2018-07-25T02:25:15.977Z,20.27
2018-07-25T02:27:44.042Z,20.28
2018-07-25T02:30:12.107Z,20.27
2018-07-25T02:32:40.194Z,20.28
2018-07-25T02:35:08.267Z,20.28
2018-07-25T02:37:36.376Z,20.21
2018-07-25T02:40:04.532Z,20.22
2018-07-25T02:42:32.619Z,20.10
2018-07-25T02:45:00.669Z,20.08
2018-07-25T02:47:28.731Z,20.06
2018-07-25T02:49:56.811Z,19.92
2018-07-25T02:52:24.887Z,19.92
2018-07-25T02:54:52.945Z,19.85
2018-07-25T02:57:21.024Z,19.88
2018-07-25T02:59:49.088Z,19.78
2018-07-25T03:02:17.165Z,19.76
2018-07-25T03:04:45.257Z,19.83
2018-07-25T03:07:13.356Z,19.71
2018-07-25T03:09:41.499Z,19.63
2018-07-25T03:12:09.609Z,19.54
2018-07-25T03:14:37.675Z,19.57
2018-07-25T03:17:05.753Z,19.47
2018-07-25T03:19:33.821Z,19.42
2018-07-25T03:22:01.913Z,19.41
2018-07-25T03:24:29.984Z,19.46
2018-07-25T03:26:58.077Z,19.43
2018-07-25T03:29:26.155Z,19.43
2018-07-25T03:31:54.272Z,19.49
2018-07-25T03:34:22.406Z,19.54
2018-07-25T03:36:50.514Z,19.44
2018-07-25T03:39:18.594Z,19.50
2018-07-25T03:41:46.731Z,19.54
2018-07-25T03:44:14.813Z,19.41
2018-07-25T03:46:42.894Z,19.38
2018-07-25T03:49:10.962Z,19.23
2018-07-25T03:51:39.063Z,19.31
2018-07-25T03:54:07.136Z,19.23
2018-07-25T03:56:35.221Z,19.23
2018-07-25T03:59:03.362Z,19.24
2018-07-25T04:01:31.468Z,19.19
2018-07-25T04:03:59.556Z,19.24
2018-07-25T04:06:27.643Z,19.23
2018-07-25T04:08:55.936Z,19.17
2018-07-25T04:11:24.041Z,19.30
2018-07-25T04:13:52.104Z,19.21
2018-07-25T04:16:20.184Z,19.29
2018-07-25T04:18:48.281Z,19.25
2018-07-25T04:21:16.400Z,19.29
2018-07-25T04:23:44.471Z,19.20
2018-07-25T04:26:12.556Z,19.22
2018-07-25T04:28:40.634Z,19.28
2018-07-25T04:31:08.727Z,19.30
2018-07-25T04:33:36.851Z,19.40
2018-07-25T04:36:04.933Z,19.35
2018-07-25T04:38:33.026Z,19.35
2018-07-25T04:41:01.128Z,19.44
2018-07-25T04:43:35.775Z,19.41
2018-07-25T04:46:03.860Z,19.48
2018-07-25T04:48:31.936Z,19.49
2018-07-25T04:51:00.040Z,19.54
2018-07-25T04:53:28.157Z,19.56
2018-07-25T04:55:56.233Z,19.62
2018-07-25T04:58:24.308Z,19.69
2018-07-25T05:00:52.375Z,19.76
2018-07-25T05:03:20.492Z,19.84
2018-07-25T05:05:48.632Z,19.75
2018-07-25T05:08:16.727Z,19.73
2018-07-25T05:10:44.815Z,19.81
2018-07-25T05:13:12.891Z,19.87
2018-07-25T05:15:40.964Z,19.89
2018-07-25T05:18:09.098Z,19.96
2018-07-25T05:20:37.187Z,19.99
2018-07-25T05:23:05.348Z,20.00
2018-07-25T05:25:33.428Z,20.10
2018-07-25T05:28:01.535Z,20.19
2018-07-25T05:30:29.745Z,20.30
2018-07-25T05:32:57.879Z,20.36
2018-07-25T05:35:25.955Z,20.48
2018-07-25T05:37:54.044Z,20.60
2018-07-25T05:40:22.111Z,20.74
2018-07-25T05:42:50.210Z,20.87
2018-07-25T05:45:18.295Z,20.95
2018-07-25T05:47:46.407Z,20.98
2018-07-25T05:50:14.473Z,20.88
2018-07-25T05:52:42.539Z,20.81
2018-07-25T05:55:10.607Z,20.85
2018-07-25T05:57:38.760Z,20.91
2018-07-25T06:00:06.930Z,21.02
2018-07-25T06:02:35.048Z,21.08
2018-07-25T06:05:03.150Z,20.97
2018-07-25T06:07:31.247Z,20.92
2018-07-25T06:09:59.319Z,21.01
2018-07-25T06:12:27.406Z,21.06
2018-07-25T06:14:55.472Z,21.13
2018-07-25T06:17:23.568Z,21.13
2018-07-25T06:19:51.700Z,21.17
2018-07-25T06:22:19.916Z,21.36
2018-07-25T06:24:48.019Z,21.48
2018-07-25T06:27:16.118Z,21.55
2018-07-25T06:29:44.183Z,21.64
2018-07-25T06:32:12.369Z,21.72
2018-07-25T06:34:40.503Z,21.75
2018-07-25T06:37:08.570Z,21.84
2018-07-25T06:39:36.776Z,21.97
2018-07-25T06:42:04.926Z,22.03
2018-07-25T06:44:33.053Z,22.10
2018-07-25T06:47:01.288Z,22.11
2018-07-25T06:49:29.375Z,22.14
2018-07-25T06:51:57.481Z,22.08
2018-07-25T06:54:25.575Z,22.20
2018-07-25T06:56:53.696Z,22.33
2018-07-25T06:59:21.814Z,22.43
2018-07-25T07:01:50.126Z,22.54
2018-07-25T07:04:18.266Z,22.67
2018-07-25T07:06:47.021Z,22.72
2018-07-25T07:09:15.168Z,22.82
2018-07-25T07:11:43.367Z,22.91
2018-07-25T07:14:11.446Z,23.04
2018-07-25T07:16:39.534Z,23.13
2018-07-25T07:19:07.653Z,23.21
2018-07-25T07:21:36.932Z,23.34
2018-07-25T07:24:05.144Z,23.48
2018-07-25T07:26:33.178Z,23.50
2018-07-25T07:29:02.549Z,23.52
2018-07-25T07:31:30.736Z,23.65
2018-07-25T07:33:58.803Z,23.87
2018-07-25T07:36:26.887Z,24.02
2018-07-25T07:38:55.022Z,24.17
2018-07-25T07:41:23.117Z,24.30
2018-07-25T07:43:51.233Z,24.33
2018-07-25T07:46:19.346Z,24.38
2018-07-25T07:48:47.568Z,24.44
2018-07-25T07:51:15.687Z,24.63
2018-07-25T07:53:43.775Z,24.86
2018-07-25T07:56:11.844Z,25.13
2018-07-25T07:58:39.919Z,25.45
2018-07-25T08:01:08.001Z,25.63
2018-07-25T08:03:36.203Z,25.81
2018-07-25T08:06:04.399Z,26.13
2018-07-25T08:08:32.503Z,26.36
2018-07-25T08:11:00.592Z,26.58
2018-07-25T08:13:28.680Z,26.83
2018-07-25T08:15:58.029Z,26.95
2018-07-25T08:18:26.105Z,27.05
2018-07-25T08:20:54.223Z,26.88
2018-07-25T08:23:22.336Z,26.76
2018-07-25T08:25:50.553Z,26.70
2018-07-25T08:28:18.658Z,26.90
2018-07-25T08:30:46.788Z,27.09
2018-07-25T08:33:15.011Z,27.09
2018-07-25T08:35:43.134Z,27.10
2018-07-25T08:38:11.267Z,27.18
2018-07-25T08:40:39.341Z,27.39
2018-07-25T08:43:07.418Z,27.66
2018-07-25T08:45:35.586Z,27.76
2018-07-25T08:48:03.683Z,28.07
2018-07-25T08:50:31.764Z,28.15
2018-07-25T08:52:59.959Z,28.33
2018-07-25T08:55:28.026Z,28.40
2018-07-25T08:57:56.091Z,28.44
2018-07-25T09:00:24.194Z,28.68
2018-07-25T09:02:52.256Z,28.66
2018-07-25T09:05:20.316Z,28.68
2018-07-25T09:07:48.409Z,28.79
2018-07-25T09:10:16.536Z,28.87
2018-07-25T09:12:44.746Z,28.98
2018-07-25T09:15:13.483Z,29.12
2018-07-25T09:17:41.587Z,29.30
2018-07-25T09:20:09.966Z,29.46
2018-07-25T09:22:38.075Z,29.60
2018-07-25T09:25:06.449Z,29.72
2018-07-25T09:27:34.506Z,29.81
2018-07-25T09:30:02.589Z,29.90
2018-07-25T09:32:30.642Z,30.01
2018-07-25T09:34:58.714Z,30.02
2018-07-25T09:37:26.920Z,30.21
2018-07-25T09:39:55.036Z,30.30
2018-07-25T09:42:23.108Z,30.46
2018-07-25T09:44:52.045Z,30.53
2018-07-25T09:47:20.122Z,30.58
2018-07-25T09:49:48.204Z,30.67
2018-07-25T09:52:16.270Z,30.69
2018-07-25T09:54:44.522Z,30.85
2018-07-25T09:57:12.583Z,30.97
2018-07-25T09:59:40.667Z,31.06
2018-07-25T10:02:08.731Z,31.16
2018-07-25T10:04:36.790Z,31.28
2018-07-25T10:07:04.877Z,31.12
2018-07-25T10:09:32.982Z,31.25
2018-07-25T10:12:01.561Z,31.23
2018-07-25T10:14:29.638Z,31.11
2018-07-25T10:16:57.707Z,31.32
2018-07-25T10:19:25.786Z,31.28
2018-07-25T10:21:54.056Z,31.21
2018-07-25T10:24:22.212Z,31.33
2018-07-25T10:26:50.335Z,31.58
2018-07-25T10:29:18.378Z,31.69
2018-07-25T10:31:46.446Z,31.80
2018-07-25T10:34:14.698Z,31.88
2018-07-25T10:36:42.963Z,31.93
2018-07-25T10:39:11.217Z,32.04
2018-07-25T10:41:39.255Z,32.15
2018-07-25T10:44:07.362Z,32.22
2018-07-25T10:46:35.534Z,32.33
2018-07-25T10:49:04.010Z,32.36
2018-07-25T10:51:32.106Z,32.41
2018-07-25T10:54:00.344Z,32.48
2018-07-25T10:56:28.427Z,32.61
2018-07-25T10:58:56.655Z,32.62
2018-07-25T11:01:25.574Z,32.58
2018-07-25T11:03:53.688Z,32.81
2018-07-25T11:06:21.771Z,32.75
2018-07-25T11:08:49.868Z,32.80
2018-07-25T11:11:18.296Z,32.90
2018-07-25T11:13:46.581Z,33.02
2018-07-25T11:16:14.731Z,33.09
2018-07-25T11:18:43.069Z,33.15
2018-07-25T11:21:11.327Z,33.28
2018-07-25T11:23:39.467Z,33.33
2018-07-25T11:26:07.540Z,33.36
2018-07-25T11:28:35.751Z,33.36
2018-07-25T11:31:04.268Z,33.45
2018-07-25T11:33:32.325Z,33.60
2018-07-25T11:36:00.403Z,33.62
2018-07-25T11:38:28.467Z,33.72
2018-07-25T11:40:56.583Z,33.81
2018-07-25T11:43:24.656Z,33.90
2018-07-25T11:45:52.728Z,34.01
2018-07-25T11:48:20.789Z,34.19
2018-07-25T11:50:48.876Z,34.16
2018-07-25T11:53:16.956Z,34.08
2018-07-25T11:55:45.127Z,34.12
2018-07-25T11:58:13.142Z,34.30
2018-07-25T12:00:41.217Z,34.35
2018-07-25T12:03:09.298Z,34.37
2018-07-25T12:05:37.377Z,34.37
2018-07-25T12:08:05.726Z,34.33
2018-07-25T12:10:33.859Z,34.27
2018-07-25T12:13:01.992Z,34.20
2018-07-25T12:15:30.075Z,34.22
2018-07-25T12:17:58.191Z,34.28
2018-07-25T12:20:26.295Z,34.57
2018-07-25T12:22:54.379Z,34.64
2018-07-25T12:25:22.706Z,34.59
2018-07-25T12:27:50.840Z,34.51
2018-07-25T12:30:18.991Z,34.50
2018-07-25T12:32:47.359Z,34.47
2018-07-25T12:35:15.662Z,34.59
2018-07-25T12:37:43.774Z,34.59
2018-07-25T12:40:11.913Z,34.67
2018-07-25T12:42:40.016Z,34.72
2018-07-25T12:45:08.303Z,34.75
2018-07-25T12:47:36.373Z,34.71
2018-07-25T12:50:04.579Z,34.79
2018-07-25T12:52:32.657Z,34.92
2018-07-25T12:55:00.760Z,34.77
2018-07-25T12:57:28.894Z,34.80
2018-07-25T12:59:57.022Z,34.84
2018-07-25T13:02:25.230Z,34.96
2018-07-25T13:04:53.335Z,34.79
2018-07-25T13:07:21.680Z,34.98
2018-07-25T13:09:49.751Z,35.11
2018-07-25T13:12:17.981Z,35.17
2018-07-25T13:14:46.113Z,35.07
2018-07-25T13:17:14.206Z,34.96
2018-07-25T13:19:42.287Z,35.07
2018-07-25T13:22:10.448Z,34.89
2018-07-25T13:24:38.528Z,34.93
2018-07-25T13:27:06.660Z,35.12
2018-07-25T13:29:34.765Z,35.18
2018-07-25T13:32:02.856Z,35.19
2018-07-25T13:34:30.928Z,35.20
2018-07-25T13:36:59.055Z,35.31
2018-07-25T13:39:27.158Z,35.34
2018-07-25T13:41:55.314Z,35.28
2018-07-25T13:44:23.976Z,35.42
2018-07-25T13:46:52.200Z,35.37
2018-07-25T13:49:20.295Z,35.34
2018-07-25T13:51:48.423Z,35.29
2018-07-25T13:54:16.641Z,35.54
2018-07-25T13:56:45.842Z,35.47
2018-07-25T13:59:13.937Z,35.65
2018-07-25T14:01:42.661Z,35.70
2018-07-25T14:04:11.217Z,36.00
2018-07-25T14:06:40.078Z,36.22
2018-07-25T14:09:09.649Z,36.10
2018-07-25T14:11:38.484Z,36.24
2018-07-25T14:14:06.660Z,36.46
2018-07-25T14:16:34.842Z,36.40
2018-07-25T14:19:02.968Z,36.32
2018-07-25T14:21:31.395Z,36.30
2018-07-25T14:23:59.797Z,36.39
2018-07-25T14:26:27.809Z,36.30
2018-07-25T14:28:56.063Z,36.32
2018-07-25T14:31:24.708Z,36.48
2018-07-25T14:33:52.826Z,36.71
2018-07-25T14:36:20.964Z,36.61
2018-07-25T14:38:49.460Z,36.51
2018-07-25T14:41:17.590Z,36.44
2018-07-25T14:43:45.976Z,36.45
2018-07-25T14:46:14.237Z,36.49
2018-07-25T14:48:43.558Z,36.45
2018-07-25T14:51:12.763Z,36.16
2018-07-25T14:53:41.228Z,36.02
2018-07-25T14:56:09.814Z,35.84
2018-07-25T14:58:37.921Z,35.71
2018-07-25T15:01:06.401Z,35.50
2018-07-25T15:03:34.656Z,35.18
2018-07-25T15:06:02.855Z,35.10
2018-07-25T15:08:31.362Z,35.02
2018-07-25T15:10:59.591Z,34.99
2018-07-25T15:13:27.993Z,34.82
2018-07-25T15:15:56.191Z,34.75
2018-07-25T15:18:24.790Z,34.70
2018-07-25T15:20:53.091Z,34.71
2018-07-25T15:23:32.746Z,34.66
2018-07-25T15:26:00.886Z,34.74
2018-07-25T15:28:29.220Z,34.75
2018-07-25T15:30:57.618Z,34.71
2018-07-25T15:33:26.619Z,34.74
2018-07-25T15:35:54.788Z,34.66
2018-07-25T15:38:23.024Z,34.71
2018-07-25T15:40:51.154Z,34.66
2018-07-25T15:43:19.359Z,34.62
2018-07-25T15:45:47.640Z,34.65
2018-07-25T15:48:15.999Z,34.62
2018-07-25T15:50:44.296Z,34.59
2018-07-25T15:53:13.482Z,34.48
2018-07-25T15:55:41.698Z,34.52
2018-07-25T15:58:10.187Z,34.54
2018-07-25T16:00:38.324Z,34.74
2018-07-25T16:03:06.426Z,34.83
2018-07-25T16:05:34.674Z,34.78
2018-07-25T16:08:02.878Z,34.82
2018-07-25T16:10:30.996Z,34.75
2018-07-25T16:12:59.199Z,34.78
2018-07-25T16:15:27.485Z,34.71
2018-07-25T16:17:55.644Z,34.67
2018-07-25T16:20:23.707Z,34.64
2018-07-25T16:22:51.800Z,34.68
2018-07-25T16:25:19.863Z,34.48
2018-07-25T16:27:47.946Z,34.45
2018-07-25T16:30:18.355Z,34.38
2018-07-25T16:32:46.450Z,34.38
2018-07-25T16:35:14.584Z,34.45
2018-07-25T16:37:42.696Z,34.45
2018-07-25T16:40:10.987Z,34.56
2018-07-25T16:42:39.119Z,34.77
2018-07-25T16:45:07.295Z,34.80
2018-07-25T16:47:35.415Z,35.04
2018-07-25T16:50:03.526Z,35.08
2018-07-25T16:52:31.651Z,35.12
2018-07-25T16:54:59.730Z,35.31
2018-07-25T16:57:28.145Z,35.41
2018-07-25T16:59:56.224Z,35.40
2018-07-25T17:02:24.400Z,35.48
2018-07-25T17:04:52.523Z,35.56
2018-07-25T17:07:20.646Z,35.57
2018-07-25T17:09:48.749Z,35.57
2018-07-25T17:12:16.847Z,35.04
2018-07-25T17:14:45.023Z,34.74
2018-07-25T17:17:13.102Z,34.41
2018-07-25T17:19:41.303Z,34.23
2018-07-25T17:22:09.549Z,33.50
2018-07-25T17:24:37.631Z,32.61
2018-07-25T17:27:05.752Z,31.54
2018-07-25T17:29:33.875Z,30.54
2018-07-25T17:32:01.998Z,29.85
2018-07-25T17:34:30.138Z,28.34
2018-07-25T17:36:58.295Z,27.56
2018-07-25T17:39:27.118Z,26.53
2018-07-25T17:41:55.175Z,26.47
2018-07-25T17:44:23.289Z,26.65
2018-07-25T17:46:51.520Z,26.63
2018-07-25T17:49:19.627Z,26.54
2018-07-25T17:51:47.765Z,25.91
2018-07-25T17:54:15.886Z,25.58
2018-07-25T17:56:44.110Z,25.40
2018-07-25T17:59:12.256Z,24.99
2018-07-25T18:01:40.483Z,24.91
2018-07-25T18:04:08.623Z,25.03
2018-07-25T18:06:36.791Z,24.67
2018-07-25T18:09:07.321Z,24.59
2018-07-25T18:11:35.724Z,24.28
2018-07-25T18:14:09.187Z,24.44
2018-07-25T18:16:37.378Z,24.36
2018-07-25T18:19:05.516Z,24.41
2018-07-25T18:21:33.740Z,24.22
2018-07-25T18:24:01.867Z,24.34
2018-07-25T18:26:30.070Z,23.88
2018-07-25T18:28:58.294Z,23.97
2018-07-25T18:31:26.435Z,23.83
2018-07-25T18:33:54.619Z,24.03
2018-07-25T18:36:22.765Z,23.93
2018-07-25T18:38:50.914Z,23.88
2018-07-25T18:41:19.045Z,23.74
2018-07-25T18:43:47.306Z,23.84
2018-07-25T18:46:15.579Z,23.95
2018-07-25T18:48:44.209Z,24.04
2018-07-25T18:51:12.420Z,24.03
2018-07-25T18:53:41.259Z,23.88
2018-07-25T18:56:09.439Z,23.94
2018-07-25T18:58:37.610Z,23.94
2018-07-25T19:01:06.476Z,23.84
2018-07-25T19:03:34.773Z,23.71
2018-07-25T19:06:03.033Z,23.46
2018-07-25T19:08:31.317Z,23.45
2018-07-25T19:10:59.463Z,23.44
2018-07-25T19:13:34.100Z,23.64
2018-07-25T19:16:03.171Z,23.66
2018-07-25T19:18:31.652Z,23.62
2018-07-25T19:21:00.011Z,23.59
2018-07-25T19:23:28.789Z,23.64
2018-07-25T19:25:57.098Z,23.64
2018-07-25T19:28:25.642Z,23.62
2018-07-25T19:30:53.757Z,23.61
2018-07-25T19:33:21.880Z,23.52
2018-07-25T19:35:50.016Z,23.51
2018-07-25T19:38:18.175Z,23.51
2018-07-25T19:40:46.857Z,23.53
2018-07-25T19:43:28.123Z,23.53
2018-07-25T19:45:56.574Z,23.52
2018-07-25T19:48:31.646Z,23.48
2018-07-25T19:50:59.920Z,23.59
2018-07-25T19:53:28.073Z,23.78
2018-07-25T19:55:56.815Z,23.66
2018-07-25T19:58:25.680Z,23.50
2018-07-25T20:00:54.005Z,23.46
2018-07-25T20:03:22.707Z,23.44
2018-07-25T20:05:54.267Z,23.35
2018-07-25T20:08:23.248Z,23.43
2018-07-25T20:10:52.520Z,23.67
2018-07-25T20:13:20.685Z,23.50
2018-07-25T20:15:54.123Z,23.40
2018-07-25T20:18:22.237Z,23.32
2018-07-25T20:20:50.458Z,23.33
2018-07-25T20:23:19.954Z,23.34
2018-07-25T20:25:48.049Z,23.27
2018-07-25T20:28:16.232Z,23.26
2018-07-25T20:30:44.341Z,23.28
2018-07-25T20:33:12.517Z,23.17
2018-07-25T20:36:51.826Z,23.17
2018-07-25T20:39:20.046Z,23.17
2018-07-25T20:41:48.281Z,23.11
2018-07-25T20:44:16.510Z,23.10
2018-07-25T20:46:44.703Z,23.36
2018-07-25T20:49:15.199Z,23.87
2018-07-25T20:51:43.345Z,24.34
2018-07-25T20:54:11.630Z,24.89
2018-07-25T20:56:39.873Z,25.04
2018-07-25T20:59:08.691Z,25.28
2018-07-25T21:01:36.852Z,25.44
2018-07-25T21:04:04.983Z,25.56
2018-07-25T21:06:33.111Z,25.56
2018-07-25T21:09:01.393Z,25.62
2018-07-25T21:11:29.537Z,25.61
2018-07-25T21:13:57.766Z,25.64
2018-07-25T21:16:26.095Z,25.65
2018-07-25T21:18:54.206Z,25.68
2018-07-25T21:21:22.532Z,25.69
2018-07-25T21:23:50.589Z,25.56
2018-07-25T21:26:18.745Z,25.55
2018-07-25T21:28:46.986Z,25.59
2018-07-25T21:31:15.150Z,25.62
2018-07-25T21:33:43.333Z,25.50
2018-07-25T21:36:11.484Z,25.43
2018-07-25T21:38:39.623Z,25.44
2018-07-25T21:41:07.764Z,25.51
2018-07-25T21:43:35.937Z,25.31
2018-07-25T21:46:04.165Z,25.20
2018-07-25T21:48:32.577Z,25.27
2018-07-25T21:51:01.516Z,25.44
2018-07-25T21:53:29.649Z,25.43
2018-07-25T21:55:57.781Z,25.24
2018-07-25T21:58:25.915Z,25.13
2018-07-25T22:00:58.377Z,25.29
2018-07-25T22:03:26.571Z,25.54
2018-07-25T22:05:54.745Z,25.60
2018-07-25T22:08:22.867Z,25.66
2018-07-25T22:10:51.015Z,25.72
2018-07-25T22:13:19.202Z,25.72
2018-07-25T22:15:47.396Z,25.68
2018-07-25T22:18:16.457Z,25.72
2018-07-25T22:20:44.617Z,25.72
2018-07-25T22:23:12.765Z,25.78
2018-07-25T22:25:41.145Z,25.87
2018-07-25T22:28:09.339Z,25.82
2018-07-25T22:30:37.669Z,25.83
2018-07-25T22:33:06.216Z,25.81
2018-07-25T22:35:34.990Z,25.78
2018-07-25T22:38:03.307Z,25.69
2018-07-25T22:40:39.965Z,25.66
2018-07-25T22:43:08.420Z,25.58
2018-07-25T22:45:36.842Z,25.46
2018-07-25T22:48:05.749Z,25.40
2018-07-25T22:50:36.431Z,25.45
2018-07-25T22:53:12.760Z,25.54
2018-07-25T22:55:41.444Z,25.51
2018-07-25T22:58:09.655Z,25.57
2018-07-25T23:00:38.222Z,25.74
2018-07-25T23:03:06.393Z,25.64
2018-07-25T23:05:35.824Z,25.68
2018-07-25T23:08:04.623Z,25.58
2018-07-25T23:10:34.408Z,25.57
2018-07-25T23:13:14.179Z,25.50
2018-07-25T23:15:42.380Z,25.39
2018-07-25T23:18:10.865Z,25.42
2018-07-25T23:20:39.160Z,25.42
2018-07-25T23:23:08.123Z,25.42
2018-07-25T23:25:37.283Z,25.35
2018-07-25T23:28:06.033Z,25.31
2018-07-25T23:30:34.445Z,25.34
2018-07-25T23:33:02.649Z,25.37
2018-07-25T23:35:30.811Z,25.40
2018-07-25T23:37:58.851Z,25.41
2018-07-25T23:40:26.959Z,25.40
2018-07-25T23:42:55.023Z,25.35
2018-07-25T23:45:23.111Z,25.32
2018-07-25T23:47:51.187Z,25.35
2018-07-25T23:50:19.261Z,25.34
2018-07-25T23:52:47.350Z,25.30
2018-07-25T23:55:15.430Z,25.33
2018-07-25T23:57:43.506Z,25.35
